sensor_id;sensor_type;location;lat;lon;timestamp;pressure;altitude;pressure_sealevel;temperature
75822;BMP180;64454;51.984;9.838;2023-08-21T00:01:46;100898.00;;;21.40
75822;BMP180;64454;51.984;9.838;2023-08-21T00:04:13;100905.00;;;21.60
75822;BMP180;64454;51.984;9.838;2023-08-21T00:06:41;100895.00;;;21.20
75822;BMP180;64454;51.984;9.838;2023-08-21T00:09:10;100900.00;;;21.10
75822;BMP180;64454;51.984;9.838;2023-08-21T00:11:37;100902.00;;;20.80
75822;BMP180;64454;51.984;9.838;2023-08-21T00:14:04;100898.00;;;20.50
75822;BMP180;64454;51.984;9.838;2023-08-21T00:16:32;100894.00;;;20.80
75822;BMP180;64454;51.984;9.838;2023-08-21T00:19:00;100900.00;;;20.70
75822;BMP180;64454;51.984;9.838;2023-08-21T00:21:27;100892.00;;;20.80
75822;BMP180;64454;51.984;9.838;2023-08-21T00:23:55;100892.00;;;20.60
75822;BMP180;64454;51.984;9.838;2023-08-21T00:26:23;100893.00;;;20.40
75822;BMP180;64454;51.984;9.838;2023-08-21T00:28:50;100889.00;;;20.80
75822;BMP180;64454;51.984;9.838;2023-08-21T00:31:16;100890.00;;;20.80
75822;BMP180;64454;51.984;9.838;2023-08-21T00:33:43;100885.00;;;20.80
75822;BMP180;64454;51.984;9.838;2023-08-21T00:36:10;100888.00;;;20.70
75822;BMP180;64454;51.984;9.838;2023-08-21T00:38:37;100892.00;;;20.60
75822;BMP180;64454;51.984;9.838;2023-08-21T00:41:04;100884.00;;;20.50
75822;BMP180;64454;51.984;9.838;2023-08-21T00:43:32;100883.00;;;20.40
75822;BMP180;64454;51.984;9.838;2023-08-21T00:45:59;100884.00;;;20.30
75822;BMP180;64454;51.984;9.838;2023-08-21T00:48:26;100889.00;;;20.30
75822;BMP180;64454;51.984;9.838;2023-08-21T00:50:53;100883.00;;;20.20
75822;BMP180;64454;51.984;9.838;2023-08-21T00:53:21;100886.00;;;20.10
75822;BMP180;64454;51.984;9.838;2023-08-21T00:55:48;100883.00;;;20.20
75822;BMP180;64454;51.984;9.838;2023-08-21T00:58:16;100883.00;;;20.20
75822;BMP180;64454;51.984;9.838;2023-08-21T01:00:46;100892.00;;;20.20
75822;BMP180;64454;51.984;9.838;2023-08-21T01:03:15;100891.00;;;20.30
75822;BMP180;64454;51.984;9.838;2023-08-21T01:05:42;100887.00;;;20.20
75822;BMP180;64454;51.984;9.838;2023-08-21T01:08:15;100886.00;;;20.30
75822;BMP180;64454;51.984;9.838;2023-08-21T01:10:52;100886.00;;;20.50
75822;BMP180;64454;51.984;9.838;2023-08-21T01:13:34;100877.00;;;20.50
75822;BMP180;64454;51.984;9.838;2023-08-21T01:16:08;100875.00;;;20.40
75822;BMP180;64454;51.984;9.838;2023-08-21T01:18:37;100875.00;;;20.50
75822;BMP180;64454;51.984;9.838;2023-08-21T01:21:05;100881.00;;;20.40
75822;BMP180;64454;51.984;9.838;2023-08-21T01:23:34;100882.00;;;20.40
75822;BMP180;64454;51.984;9.838;2023-08-21T01:26:02;100890.00;;;20.30
75822;BMP180;64454;51.984;9.838;2023-08-21T01:28:30;100890.00;;;20.00
75822;BMP180;64454;51.984;9.838;2023-08-21T01:31:05;100889.00;;;19.80
75822;BMP180;64454;51.984;9.838;2023-08-21T01:33:41;100890.00;;;20.10
75822;BMP180;64454;51.984;9.838;2023-08-21T01:36:09;100889.00;;;20.00
75822;BMP180;64454;51.984;9.838;2023-08-21T01:38:38;100888.00;;;20.10
75822;BMP180;64454;51.984;9.838;2023-08-21T01:41:05;100888.00;;;19.90
75822;BMP180;64454;51.984;9.838;2023-08-21T01:43:32;100891.00;;;19.70
75822;BMP180;64454;51.984;9.838;2023-08-21T01:46:00;100890.00;;;19.70
75822;BMP180;64454;51.984;9.838;2023-08-21T01:48:27;100884.00;;;19.70
75822;BMP180;64454;51.984;9.838;2023-08-21T01:50:54;100881.00;;;19.70
75822;BMP180;64454;51.984;9.838;2023-08-21T01:53:21;100879.00;;;19.80
75822;BMP180;64454;51.984;9.838;2023-08-21T01:55:49;100879.00;;;20.20
75822;BMP180;64454;51.984;9.838;2023-08-21T01:58:16;100882.00;;;19.80
75822;BMP180;64454;51.984;9.838;2023-08-21T02:00:46;100879.00;;;19.60
75822;BMP180;64454;51.984;9.838;2023-08-21T02:03:13;100883.00;;;19.40
75822;BMP180;64454;51.984;9.838;2023-08-21T02:05:40;100894.00;;;19.20
75822;BMP180;64454;51.984;9.838;2023-08-21T02:08:14;100885.00;;;19.30
75822;BMP180;64454;51.984;9.838;2023-08-21T02:10:50;100879.00;;;19.20
75822;BMP180;64454;51.984;9.838;2023-08-21T02:13:19;100877.00;;;19.30
75822;BMP180;64454;51.984;9.838;2023-08-21T02:15:45;100873.00;;;19.40
75822;BMP180;64454;51.984;9.838;2023-08-21T02:18:12;100879.00;;;19.30
75822;BMP180;64454;51.984;9.838;2023-08-21T02:20:39;100874.00;;;19.00
75822;BMP180;64454;51.984;9.838;2023-08-21T02:23:06;100874.00;;;18.90
75822;BMP180;64454;51.984;9.838;2023-08-21T02:25:33;100875.00;;;19.10
75822;BMP180;64454;51.984;9.838;2023-08-21T02:28:02;100867.00;;;19.20
75822;BMP180;64454;51.984;9.838;2023-08-21T02:30:29;100862.00;;;19.00
75822;BMP180;64454;51.984;9.838;2023-08-21T02:32:56;100862.00;;;19.20
75822;BMP180;64454;51.984;9.838;2023-08-21T02:35:23;100855.00;;;19.20
75822;BMP180;64454;51.984;9.838;2023-08-21T02:37:50;100857.00;;;19.00
75822;BMP180;64454;51.984;9.838;2023-08-21T02:40:17;100864.00;;;19.20
75822;BMP180;64454;51.984;9.838;2023-08-21T02:42:44;100858.00;;;19.20
75822;BMP180;64454;51.984;9.838;2023-08-21T02:45:12;100860.00;;;19.00
75822;BMP180;64454;51.984;9.838;2023-08-21T02:47:41;100857.00;;;18.90
75822;BMP180;64454;51.984;9.838;2023-08-21T02:50:09;100869.00;;;19.30
75822;BMP180;64454;51.984;9.838;2023-08-21T02:52:37;100873.00;;;19.40
75822;BMP180;64454;51.984;9.838;2023-08-21T02:55:05;100869.00;;;19.10
75822;BMP180;64454;51.984;9.838;2023-08-21T02:57:32;100873.00;;;18.90
75822;BMP180;64454;51.984;9.838;2023-08-21T03:00:00;100871.00;;;19.00
75822;BMP180;64454;51.984;9.838;2023-08-21T03:02:28;100876.00;;;18.90
75822;BMP180;64454;51.984;9.838;2023-08-21T03:04:55;100874.00;;;18.80
75822;BMP180;64454;51.984;9.838;2023-08-21T03:07:22;100881.00;;;18.60
75822;BMP180;64454;51.984;9.838;2023-08-21T03:09:50;100876.00;;;18.70
75822;BMP180;64454;51.984;9.838;2023-08-21T03:12:17;100871.00;;;18.50
75822;BMP180;64454;51.984;9.838;2023-08-21T03:14:45;100867.00;;;18.30
75822;BMP180;64454;51.984;9.838;2023-08-21T03:17:12;100865.00;;;18.10
75822;BMP180;64454;51.984;9.838;2023-08-21T03:19:40;100869.00;;;18.30
75822;BMP180;64454;51.984;9.838;2023-08-21T03:22:07;100872.00;;;18.70
75822;BMP180;64454;51.984;9.838;2023-08-21T03:24:34;100878.00;;;18.90
75822;BMP180;64454;51.984;9.838;2023-08-21T03:27:01;100876.00;;;18.60
75822;BMP180;64454;51.984;9.838;2023-08-21T03:29:28;100868.00;;;18.80
75822;BMP180;64454;51.984;9.838;2023-08-21T03:31:56;100869.00;;;18.70
75822;BMP180;64454;51.984;9.838;2023-08-21T03:34:23;100875.00;;;18.70
75822;BMP180;64454;51.984;9.838;2023-08-21T03:36:51;100875.00;;;18.40
75822;BMP180;64454;51.984;9.838;2023-08-21T03:39:20;100873.00;;;18.60
75822;BMP180;64454;51.984;9.838;2023-08-21T03:41:47;100872.00;;;18.50
75822;BMP180;64454;51.984;9.838;2023-08-21T03:44:15;100868.00;;;18.30
75822;BMP180;64454;51.984;9.838;2023-08-21T03:46:43;100875.00;;;18.40
75822;BMP180;64454;51.984;9.838;2023-08-21T03:49:10;100881.00;;;18.50
75822;BMP180;64454;51.984;9.838;2023-08-21T03:51:37;100884.00;;;18.30
75822;BMP180;64454;51.984;9.838;2023-08-21T03:54:06;100875.00;;;18.10
75822;BMP180;64454;51.984;9.838;2023-08-21T03:56:33;100874.00;;;18.40
75822;BMP180;64454;51.984;9.838;2023-08-21T03:59:00;100879.00;;;18.30
75822;BMP180;64454;51.984;9.838;2023-08-21T04:01:27;100873.00;;;18.20
75822;BMP180;64454;51.984;9.838;2023-08-21T04:03:53;100872.00;;;18.20
75822;BMP180;64454;51.984;9.838;2023-08-21T04:06:20;100873.00;;;18.00
75822;BMP180;64454;51.984;9.838;2023-08-21T04:08:47;100873.00;;;18.00
75822;BMP180;64454;51.984;9.838;2023-08-21T04:11:16;100875.00;;;18.10
75822;BMP180;64454;51.984;9.838;2023-08-21T04:13:42;100877.00;;;18.20
75822;BMP180;64454;51.984;9.838;2023-08-21T04:16:09;100885.00;;;18.30
75822;BMP180;64454;51.984;9.838;2023-08-21T04:18:37;100880.00;;;18.40
75822;BMP180;64454;51.984;9.838;2023-08-21T04:21:05;100876.00;;;18.10
75822;BMP180;64454;51.984;9.838;2023-08-21T04:23:32;100873.00;;;18.00
75822;BMP180;64454;51.984;9.838;2023-08-21T04:26:00;100877.00;;;17.80
75822;BMP180;64454;51.984;9.838;2023-08-21T04:28:30;100877.00;;;17.70
75822;BMP180;64454;51.984;9.838;2023-08-21T04:30:57;100872.00;;;18.20
75822;BMP180;64454;51.984;9.838;2023-08-21T04:33:24;100878.00;;;18.10
75822;BMP180;64454;51.984;9.838;2023-08-21T04:35:51;100872.00;;;17.80
75822;BMP180;64454;51.984;9.838;2023-08-21T04:38:18;100872.00;;;17.90
75822;BMP180;64454;51.984;9.838;2023-08-21T04:40:45;100878.00;;;18.00
75822;BMP180;64454;51.984;9.838;2023-08-21T04:43:12;100868.00;;;17.80
75822;BMP180;64454;51.984;9.838;2023-08-21T04:45:47;100875.00;;;18.00
75822;BMP180;64454;51.984;9.838;2023-08-21T04:48:14;100874.00;;;18.10
75822;BMP180;64454;51.984;9.838;2023-08-21T04:50:41;100888.00;;;18.40
75822;BMP180;64454;51.984;9.838;2023-08-21T04:53:08;100885.00;;;18.50
75822;BMP180;64454;51.984;9.838;2023-08-21T04:55:35;100888.00;;;18.80
75822;BMP180;64454;51.984;9.838;2023-08-21T04:58:03;100895.00;;;18.20
75822;BMP180;64454;51.984;9.838;2023-08-21T05:00:30;100895.00;;;18.40
75822;BMP180;64454;51.984;9.838;2023-08-21T05:02:58;100895.00;;;18.40
75822;BMP180;64454;51.984;9.838;2023-08-21T05:05:25;100908.00;;;18.30
75822;BMP180;64454;51.984;9.838;2023-08-21T05:07:52;100908.00;;;18.30
75822;BMP180;64454;51.984;9.838;2023-08-21T05:10:20;100904.00;;;18.10
75822;BMP180;64454;51.984;9.838;2023-08-21T05:12:47;100906.00;;;18.10
75822;BMP180;64454;51.984;9.838;2023-08-21T05:15:14;100906.00;;;18.10
75822;BMP180;64454;51.984;9.838;2023-08-21T05:17:41;100906.00;;;18.20
75822;BMP180;64454;51.984;9.838;2023-08-21T05:20:11;100899.00;;;18.10
75822;BMP180;64454;51.984;9.838;2023-08-21T05:22:40;100893.00;;;18.20
75822;BMP180;64454;51.984;9.838;2023-08-21T05:25:08;100903.00;;;18.40
75822;BMP180;64454;51.984;9.838;2023-08-21T05:27:35;100911.00;;;18.30
75822;BMP180;64454;51.984;9.838;2023-08-21T05:30:04;100905.00;;;18.40
75822;BMP180;64454;51.984;9.838;2023-08-21T05:32:31;100906.00;;;18.50
75822;BMP180;64454;51.984;9.838;2023-08-21T05:34:58;100914.00;;;18.70
75822;BMP180;64454;51.984;9.838;2023-08-21T05:37:26;100915.00;;;18.80
75822;BMP180;64454;51.984;9.838;2023-08-21T05:39:53;100916.00;;;18.80
75822;BMP180;64454;51.984;9.838;2023-08-21T05:42:20;100914.00;;;18.90
75822;BMP180;64454;51.984;9.838;2023-08-21T05:44:47;100917.00;;;19.20
75822;BMP180;64454;51.984;9.838;2023-08-21T05:47:14;100914.00;;;19.10
75822;BMP180;64454;51.984;9.838;2023-08-21T05:49:42;100916.00;;;19.10
75822;BMP180;64454;51.984;9.838;2023-08-21T05:52:09;100917.00;;;19.10
75822;BMP180;64454;51.984;9.838;2023-08-21T05:54:37;100918.00;;;19.10
75822;BMP180;64454;51.984;9.838;2023-08-21T05:57:04;100920.00;;;19.30
75822;BMP180;64454;51.984;9.838;2023-08-21T05:59:32;100920.00;;;19.40
75822;BMP180;64454;51.984;9.838;2023-08-21T06:01:59;100928.00;;;19.50
75822;BMP180;64454;51.984;9.838;2023-08-21T06:04:26;100923.00;;;19.50
75822;BMP180;64454;51.984;9.838;2023-08-21T06:06:53;100921.00;;;19.80
75822;BMP180;64454;51.984;9.838;2023-08-21T06:09:21;100920.00;;;19.80
75822;BMP180;64454;51.984;9.838;2023-08-21T06:11:50;100925.00;;;19.80
75822;BMP180;64454;51.984;9.838;2023-08-21T06:14:19;100929.00;;;19.80
75822;BMP180;64454;51.984;9.838;2023-08-21T06:16:54;100934.00;;;19.90
75822;BMP180;64454;51.984;9.838;2023-08-21T06:19:21;100943.00;;;20.10
75822;BMP180;64454;51.984;9.838;2023-08-21T06:21:48;100940.00;;;20.00
75822;BMP180;64454;51.984;9.838;2023-08-21T06:24:16;100933.00;;;19.80
75822;BMP180;64454;51.984;9.838;2023-08-21T06:26:44;100933.00;;;19.90
75822;BMP180;64454;51.984;9.838;2023-08-21T06:29:14;100939.00;;;19.90
75822;BMP180;64454;51.984;9.838;2023-08-21T06:31:43;100943.00;;;20.00
75822;BMP180;64454;51.984;9.838;2023-08-21T06:34:10;100929.00;;;20.60
75822;BMP180;64454;51.984;9.838;2023-08-21T06:36:37;100929.00;;;20.70
75822;BMP180;64454;51.984;9.838;2023-08-21T06:39:05;100929.00;;;20.80
75822;BMP180;64454;51.984;9.838;2023-08-21T06:41:32;100929.00;;;21.00
75822;BMP180;64454;51.984;9.838;2023-08-21T06:43:59;100933.00;;;21.00
75822;BMP180;64454;51.984;9.838;2023-08-21T06:46:27;100926.00;;;21.00
75822;BMP180;64454;51.984;9.838;2023-08-21T06:48:54;100924.00;;;21.20
75822;BMP180;64454;51.984;9.838;2023-08-21T06:51:21;100930.00;;;21.50
75822;BMP180;64454;51.984;9.838;2023-08-21T06:53:48;100932.00;;;21.60
75822;BMP180;64454;51.984;9.838;2023-08-21T06:56:15;100930.00;;;21.70
75822;BMP180;64454;51.984;9.838;2023-08-21T06:58:43;100935.00;;;21.90
75822;BMP180;64454;51.984;9.838;2023-08-21T07:01:10;100932.00;;;21.80
75822;BMP180;64454;51.984;9.838;2023-08-21T07:03:38;100940.00;;;21.90
75822;BMP180;64454;51.984;9.838;2023-08-21T07:06:05;100940.00;;;22.10
75822;BMP180;64454;51.984;9.838;2023-08-21T07:08:32;100940.00;;;22.10
75822;BMP180;64454;51.984;9.838;2023-08-21T07:11:02;100944.00;;;22.40
75822;BMP180;64454;51.984;9.838;2023-08-21T07:13:30;100941.00;;;22.30
75822;BMP180;64454;51.984;9.838;2023-08-21T07:15:57;100951.00;;;22.20
75822;BMP180;64454;51.984;9.838;2023-08-21T07:18:24;100944.00;;;22.40
75822;BMP180;64454;51.984;9.838;2023-08-21T07:20:53;100940.00;;;22.70
75822;BMP180;64454;51.984;9.838;2023-08-21T07:23:20;100945.00;;;22.50
75822;BMP180;64454;51.984;9.838;2023-08-21T07:25:47;100944.00;;;23.20
75822;BMP180;64454;51.984;9.838;2023-08-21T07:28:14;100949.00;;;23.30
75822;BMP180;64454;51.984;9.838;2023-08-21T07:30:41;100953.00;;;23.50
75822;BMP180;64454;51.984;9.838;2023-08-21T07:33:08;100952.00;;;23.60
75822;BMP180;64454;51.984;9.838;2023-08-21T07:35:35;100953.00;;;24.00
75822;BMP180;64454;51.984;9.838;2023-08-21T07:38:04;100955.00;;;23.80
75822;BMP180;64454;51.984;9.838;2023-08-21T07:40:31;100949.00;;;23.90
75822;BMP180;64454;51.984;9.838;2023-08-21T07:42:57;100951.00;;;24.00
75822;BMP180;64454;51.984;9.838;2023-08-21T07:45:24;100950.00;;;23.90
75822;BMP180;64454;51.984;9.838;2023-08-21T07:47:51;100947.00;;;23.70
75822;BMP180;64454;51.984;9.838;2023-08-21T07:50:19;100947.00;;;24.10
75822;BMP180;64454;51.984;9.838;2023-08-21T07:52:46;100946.00;;;24.40
75822;BMP180;64454;51.984;9.838;2023-08-21T07:55:14;100945.00;;;24.70
75822;BMP180;64454;51.984;9.838;2023-08-21T07:57:41;100943.00;;;24.50
75822;BMP180;64454;51.984;9.838;2023-08-21T08:00:10;100946.00;;;24.60
75822;BMP180;64454;51.984;9.838;2023-08-21T08:02:37;100945.00;;;24.30
75822;BMP180;64454;51.984;9.838;2023-08-21T08:05:05;100953.00;;;24.60
75822;BMP180;64454;51.984;9.838;2023-08-21T08:07:33;100949.00;;;25.20
75822;BMP180;64454;51.984;9.838;2023-08-21T08:10:00;100940.00;;;25.70
75822;BMP180;64454;51.984;9.838;2023-08-21T08:12:28;100956.00;;;26.40
75822;BMP180;64454;51.984;9.838;2023-08-21T08:14:55;100949.00;;;27.00
75822;BMP180;64454;51.984;9.838;2023-08-21T08:17:22;100956.00;;;26.70
75822;BMP180;64454;51.984;9.838;2023-08-21T08:19:49;100953.00;;;26.50
75822;BMP180;64454;51.984;9.838;2023-08-21T08:22:16;100943.00;;;26.60
75822;BMP180;64454;51.984;9.838;2023-08-21T08:24:43;100953.00;;;27.30
75822;BMP180;64454;51.984;9.838;2023-08-21T08:27:11;100955.00;;;28.40
75822;BMP180;64454;51.984;9.838;2023-08-21T08:29:39;100942.00;;;29.70
75822;BMP180;64454;51.984;9.838;2023-08-21T08:32:06;100954.00;;;31.00
75822;BMP180;64454;51.984;9.838;2023-08-21T08:34:33;100942.00;;;29.40
75822;BMP180;64454;51.984;9.838;2023-08-21T08:37:00;100949.00;;;28.90
75822;BMP180;64454;51.984;9.838;2023-08-21T08:39:27;100960.00;;;29.60
75822;BMP180;64454;51.984;9.838;2023-08-21T08:41:59;100947.00;;;29.70
75822;BMP180;64454;51.984;9.838;2023-08-21T08:44:30;100941.00;;;30.90
75822;BMP180;64454;51.984;9.838;2023-08-21T08:47:00;100945.00;;;32.00
75822;BMP180;64454;51.984;9.838;2023-08-21T08:49:28;100945.00;;;31.00
75822;BMP180;64454;51.984;9.838;2023-08-21T08:51:55;100956.00;;;31.00
75822;BMP180;64454;51.984;9.838;2023-08-21T08:54:25;100968.00;;;31.90
75822;BMP180;64454;51.984;9.838;2023-08-21T08:56:52;100945.00;;;30.90
75822;BMP180;64454;51.984;9.838;2023-08-21T08:59:20;100941.00;;;30.00
75822;BMP180;64454;51.984;9.838;2023-08-21T09:01:47;100946.00;;;31.30
75822;BMP180;64454;51.984;9.838;2023-08-21T09:04:19;100942.00;;;33.20
75822;BMP180;64454;51.984;9.838;2023-08-21T09:06:47;100945.00;;;31.40
75822;BMP180;64454;51.984;9.838;2023-08-21T09:09:16;100960.00;;;31.10
75822;BMP180;64454;51.984;9.838;2023-08-21T09:11:47;100945.00;;;29.30
75822;BMP180;64454;51.984;9.838;2023-08-21T09:14:25;100951.00;;;31.70
75822;BMP180;64454;51.984;9.838;2023-08-21T09:17:00;100948.00;;;34.30
75822;BMP180;64454;51.984;9.838;2023-08-21T09:19:30;100954.00;;;34.50
75822;BMP180;64454;51.984;9.838;2023-08-21T09:21:57;100945.00;;;35.60
75822;BMP180;64454;51.984;9.838;2023-08-21T09:24:25;100942.00;;;35.60
75822;BMP180;64454;51.984;9.838;2023-08-21T09:26:52;100940.00;;;35.70
75822;BMP180;64454;51.984;9.838;2023-08-21T09:29:20;100945.00;;;35.20
75822;BMP180;64454;51.984;9.838;2023-08-21T09:31:47;100943.00;;;36.40
75822;BMP180;64454;51.984;9.838;2023-08-21T09:34:16;100941.00;;;37.10
75822;BMP180;64454;51.984;9.838;2023-08-21T09:36:54;100937.00;;;36.90
75822;BMP180;64454;51.984;9.838;2023-08-21T09:39:21;100938.00;;;37.20
75822;BMP180;64454;51.984;9.838;2023-08-21T09:41:55;100939.00;;;37.90
75822;BMP180;64454;51.984;9.838;2023-08-21T09:44:22;100934.00;;;37.40
75822;BMP180;64454;51.984;9.838;2023-08-21T09:46:50;100944.00;;;35.30
75822;BMP180;64454;51.984;9.838;2023-08-21T09:49:20;100929.00;;;35.30
75822;BMP180;64454;51.984;9.838;2023-08-21T09:51:50;100937.00;;;37.90
75822;BMP180;64454;51.984;9.838;2023-08-21T09:54:20;100925.00;;;37.30
75822;BMP180;64454;51.984;9.838;2023-08-21T09:56:49;100928.00;;;37.80
75822;BMP180;64454;51.984;9.838;2023-08-21T09:59:19;100928.00;;;38.40
75822;BMP180;64454;51.984;9.838;2023-08-21T10:01:49;100926.00;;;38.30
75822;BMP180;64454;51.984;9.838;2023-08-21T10:04:21;100932.00;;;40.40
75822;BMP180;64454;51.984;9.838;2023-08-21T10:06:51;100924.00;;;39.50
75822;BMP180;64454;51.984;9.838;2023-08-21T10:09:23;100936.00;;;37.50
75822;BMP180;64454;51.984;9.838;2023-08-21T10:11:52;100944.00;;;37.40
75822;BMP180;64454;51.984;9.838;2023-08-21T10:14:22;100934.00;;;37.00
75822;BMP180;64454;51.984;9.838;2023-08-21T10:16:52;100935.00;;;36.30
75822;BMP180;64454;51.984;9.838;2023-08-21T10:19:20;100925.00;;;37.40
75822;BMP180;64454;51.984;9.838;2023-08-21T10:21:49;100953.00;;;37.40
75822;BMP180;64454;51.984;9.838;2023-08-21T10:24:35;100956.00;;;35.30
75822;BMP180;64454;51.984;9.838;2023-08-21T10:27:03;100961.00;;;34.50
75822;BMP180;64454;51.984;9.838;2023-08-21T10:29:31;100949.00;;;33.50
75822;BMP180;64454;51.984;9.838;2023-08-21T10:32:00;100951.00;;;32.10
75822;BMP180;64454;51.984;9.838;2023-08-21T10:34:34;100955.00;;;31.60
75822;BMP180;64454;51.984;9.838;2023-08-21T10:37:07;100951.00;;;30.30
75822;BMP180;64454;51.984;9.838;2023-08-21T10:39:36;100952.00;;;30.20
75822;BMP180;64454;51.984;9.838;2023-08-21T10:42:08;100934.00;;;31.40
75822;BMP180;64454;51.984;9.838;2023-08-21T10:44:52;100944.00;;;31.00
75822;BMP180;64454;51.984;9.838;2023-08-21T10:47:23;100932.00;;;30.50
75822;BMP180;64454;51.984;9.838;2023-08-21T10:49:52;100924.00;;;31.80
75822;BMP180;64454;51.984;9.838;2023-08-21T10:52:26;100952.00;;;32.90
75822;BMP180;64454;51.984;9.838;2023-08-21T10:54:55;100952.00;;;32.80
75822;BMP180;64454;51.984;9.838;2023-08-21T10:57:24;100957.00;;;31.30
75822;BMP180;64454;51.984;9.838;2023-08-21T10:59:56;100952.00;;;29.60
75822;BMP180;64454;51.984;9.838;2023-08-21T11:02:25;100941.00;;;30.20
75822;BMP180;64454;51.984;9.838;2023-08-21T11:04:53;100931.00;;;30.40
75822;BMP180;64454;51.984;9.838;2023-08-21T11:07:20;100928.00;;;32.10
75822;BMP180;64454;51.984;9.838;2023-08-21T11:09:49;100930.00;;;32.00
75822;BMP180;64454;51.984;9.838;2023-08-21T11:12:18;100899.00;;;30.80
75822;BMP180;64454;51.984;9.838;2023-08-21T11:14:46;100926.00;;;33.50
75822;BMP180;64454;51.984;9.838;2023-08-21T11:17:13;100920.00;;;32.90
75822;BMP180;64454;51.984;9.838;2023-08-21T11:19:42;100919.00;;;33.80
75822;BMP180;64454;51.984;9.838;2023-08-21T11:22:09;100942.00;;;32.80
75822;BMP180;64454;51.984;9.838;2023-08-21T11:24:44;100948.00;;;32.30
75822;BMP180;64454;51.984;9.838;2023-08-21T11:27:14;100923.00;;;31.20
75822;BMP180;64454;51.984;9.838;2023-08-21T11:29:43;100931.00;;;32.70
75822;BMP180;64454;51.984;9.838;2023-08-21T11:32:13;100931.00;;;33.10
75822;BMP180;64454;51.984;9.838;2023-08-21T11:34:41;100916.00;;;32.40
75822;BMP180;64454;51.984;9.838;2023-08-21T11:37:08;100913.00;;;33.10
75822;BMP180;64454;51.984;9.838;2023-08-21T11:39:43;100912.00;;;34.60
75822;BMP180;64454;51.984;9.838;2023-08-21T11:42:12;100898.00;;;34.90
75822;BMP180;64454;51.984;9.838;2023-08-21T11:44:45;100903.00;;;34.60
75822;BMP180;64454;51.984;9.838;2023-08-21T11:47:13;100906.00;;;35.70
75822;BMP180;64454;51.984;9.838;2023-08-21T11:49:42;100907.00;;;35.60
75822;BMP180;64454;51.984;9.838;2023-08-21T11:52:11;100910.00;;;34.20
75822;BMP180;64454;51.984;9.838;2023-08-21T11:54:40;100914.00;;;34.50
75822;BMP180;64454;51.984;9.838;2023-08-21T11:57:11;100900.00;;;34.70
75822;BMP180;64454;51.984;9.838;2023-08-21T11:59:40;100901.00;;;34.90
75822;BMP180;64454;51.984;9.838;2023-08-21T12:02:14;100906.00;;;34.50
75822;BMP180;64454;51.984;9.838;2023-08-21T12:04:42;100907.00;;;34.00
75822;BMP180;64454;51.984;9.838;2023-08-21T12:07:09;100899.00;;;34.70
75822;BMP180;64454;51.984;9.838;2023-08-21T12:09:36;100917.00;;;34.60
75822;BMP180;64454;51.984;9.838;2023-08-21T12:12:04;100936.00;;;34.10
75822;BMP180;64454;51.984;9.838;2023-08-21T12:14:31;100933.00;;;32.90
75822;BMP180;64454;51.984;9.838;2023-08-21T12:16:59;100925.00;;;33.10
75822;BMP180;64454;51.984;9.838;2023-08-21T12:19:26;100930.00;;;32.40
75822;BMP180;64454;51.984;9.838;2023-08-21T12:21:53;100903.00;;;31.80
75822;BMP180;64454;51.984;9.838;2023-08-21T12:24:21;100920.00;;;32.70
75822;BMP180;64454;51.984;9.838;2023-08-21T12:26:47;100913.00;;;32.30
75822;BMP180;64454;51.984;9.838;2023-08-21T12:29:16;100898.00;;;32.30
75822;BMP180;64454;51.984;9.838;2023-08-21T12:31:44;100895.00;;;32.80
75822;BMP180;64454;51.984;9.838;2023-08-21T12:34:15;100895.00;;;33.00
75822;BMP180;64454;51.984;9.838;2023-08-21T12:36:43;100904.00;;;32.20
75822;BMP180;64454;51.984;9.838;2023-08-21T12:39:10;100882.00;;;31.90
75822;BMP180;64454;51.984;9.838;2023-08-21T12:41:37;100902.00;;;32.60
75822;BMP180;64454;51.984;9.838;2023-08-21T12:44:04;100889.00;;;32.00
75822;BMP180;64454;51.984;9.838;2023-08-21T12:46:34;100902.00;;;32.40
75822;BMP180;64454;51.984;9.838;2023-08-21T12:49:01;100905.00;;;30.30
75822;BMP180;64454;51.984;9.838;2023-08-21T12:51:31;100913.00;;;30.00
75822;BMP180;64454;51.984;9.838;2023-08-21T12:53:58;100915.00;;;31.20
75822;BMP180;64454;51.984;9.838;2023-08-21T12:56:25;100911.00;;;31.30
75822;BMP180;64454;51.984;9.838;2023-08-21T12:58:51;100913.00;;;31.90
75822;BMP180;64454;51.984;9.838;2023-08-21T13:01:18;100893.00;;;31.80
75822;BMP180;64454;51.984;9.838;2023-08-21T13:03:47;100907.00;;;31.90
75822;BMP180;64454;51.984;9.838;2023-08-21T13:06:14;100899.00;;;31.80
75822;BMP180;64454;51.984;9.838;2023-08-21T13:08:42;100893.00;;;32.20
75822;BMP180;64454;51.984;9.838;2023-08-21T13:11:09;100887.00;;;32.70
75822;BMP180;64454;51.984;9.838;2023-08-21T13:13:36;100889.00;;;32.60
75822;BMP180;64454;51.984;9.838;2023-08-21T13:16:03;100881.00;;;32.40
75822;BMP180;64454;51.984;9.838;2023-08-21T13:18:30;100879.00;;;32.50
75822;BMP180;64454;51.984;9.838;2023-08-21T13:20:57;100881.00;;;32.30
75822;BMP180;64454;51.984;9.838;2023-08-21T13:23:24;100884.00;;;31.90
75822;BMP180;64454;51.984;9.838;2023-08-21T13:25:52;100874.00;;;31.80
75822;BMP180;64454;51.984;9.838;2023-08-21T13:28:19;100887.00;;;31.80
75822;BMP180;64454;51.984;9.838;2023-08-21T13:30:46;100871.00;;;31.60
75822;BMP180;64454;51.984;9.838;2023-08-21T13:33:14;100871.00;;;31.50
75822;BMP180;64454;51.984;9.838;2023-08-21T13:35:43;100875.00;;;32.20
75822;BMP180;64454;51.984;9.838;2023-08-21T13:38:12;100881.00;;;32.40
75822;BMP180;64454;51.984;9.838;2023-08-21T13:40:39;100869.00;;;32.60
75822;BMP180;64454;51.984;9.838;2023-08-21T13:43:08;100876.00;;;32.40
75822;BMP180;64454;51.984;9.838;2023-08-21T13:45:38;100890.00;;;31.80
75822;BMP180;64454;51.984;9.838;2023-08-21T13:48:06;100883.00;;;31.10
75822;BMP180;64454;51.984;9.838;2023-08-21T13:50:34;100878.00;;;31.30
75822;BMP180;64454;51.984;9.838;2023-08-21T13:53:01;100870.00;;;31.20
75822;BMP180;64454;51.984;9.838;2023-08-21T13:55:28;100885.00;;;30.90
75822;BMP180;64454;51.984;9.838;2023-08-21T13:57:55;100878.00;;;30.80
75822;BMP180;64454;51.984;9.838;2023-08-21T14:00:23;100867.00;;;31.40
75822;BMP180;64454;51.984;9.838;2023-08-21T14:02:50;100871.00;;;31.50